createdAt,value
2018-04-19T00:01:01.841Z,9.50
2018-04-19T00:03:28.661Z,9.40
2018-04-19T00:05:54.753Z,9.30
2018-04-19T00:08:21.610Z,9.30
2018-04-19T00:10:47.696Z,9.30
2018-04-19T00:13:13.797Z,9.30
2018-04-19T00:15:39.893Z,9.20
2018-04-19T00:18:06.709Z,9.20
2018-04-19T00:20:32.780Z,9.20
2018-04-19T00:22:59.610Z,9.10
2018-04-19T00:25:25.668Z,9.10
2018-04-19T00:27:51.771Z,9.00
2018-04-19T00:30:17.861Z,9.00
2018-04-19T00:32:44.656Z,8.90
2018-04-19T00:35:10.740Z,8.90
2018-04-19T00:37:37.557Z,9.00
2018-04-19T00:40:03.664Z,8.90
2018-04-19T00:42:29.717Z,8.90
2018-04-19T00:44:55.804Z,8.90
2018-04-19T00:47:22.633Z,8.90
2018-04-19T00:49:48.719Z,8.90
2018-04-19T00:52:14.874Z,8.90
2018-04-19T00:54:40.948Z,8.80
2018-04-19T00:57:07.031Z,8.80
2018-04-19T00:59:33.847Z,8.80
2018-04-19T01:01:59.953Z,8.80
2018-04-19T01:04:26.025Z,8.70
2018-04-19T01:07:01.139Z,8.50
2018-04-19T01:09:27.253Z,8.50
2018-04-19T01:11:54.109Z,8.30
2018-04-19T01:14:20.942Z,8.40
2018-04-19T01:16:47.025Z,8.40
2018-04-19T01:19:13.100Z,8.40
2018-04-19T01:21:39.218Z,8.40
2018-04-19T01:24:05.304Z,8.40
2018-04-19T01:26:32.168Z,8.40
2018-04-19T01:28:58.995Z,8.40
2018-04-19T01:31:25.075Z,8.40
2018-04-19T01:33:52.164Z,8.40
2018-04-19T01:36:24.157Z,8.40
2018-04-19T01:38:50.276Z,8.40
2018-04-19T01:41:16.392Z,8.40
2018-04-19T01:43:42.527Z,8.40
2018-04-19T01:46:08.633Z,8.20
2018-04-19T01:48:34.735Z,8.20
2018-04-19T01:51:00.829Z,8.10
2018-04-19T01:53:27.684Z,8.10
2018-04-19T01:55:53.824Z,8.10
2018-04-19T01:58:20.679Z,8.10
2018-04-19T02:00:46.770Z,8.20
2018-04-19T02:03:12.882Z,8.20
2018-04-19T02:05:38.978Z,8.10
2018-04-19T02:08:05.841Z,8.00
2018-04-19T02:10:32.669Z,8.00
2018-04-19T02:12:58.878Z,8.00
2018-04-19T02:15:24.996Z,8.00
2018-04-19T02:17:51.154Z,8.00
2018-04-19T02:20:17.276Z,7.90
2018-04-19T02:22:43.358Z,7.70
2018-04-19T02:25:09.473Z,7.70
2018-04-19T02:27:35.558Z,7.50
2018-04-19T02:30:01.641Z,7.50
2018-04-19T02:32:28.469Z,7.40
2018-04-19T02:34:54.593Z,7.40
2018-04-19T02:37:21.419Z,7.40
2018-04-19T02:39:47.518Z,7.40
2018-04-19T02:42:13.865Z,7.40
2018-04-19T02:44:39.958Z,7.00
2018-04-19T02:47:06.037Z,7.40
2018-04-19T02:49:32.123Z,7.40
2018-04-19T02:51:58.225Z,7.40
2018-04-19T02:54:24.333Z,7.40
2018-04-19T02:56:51.182Z,7.40
2018-04-19T02:59:18.031Z,7.40
2018-04-19T03:01:44.199Z,7.40
2018-04-19T03:04:10.261Z,7.30
2018-04-19T03:06:36.371Z,7.30
2018-04-19T03:09:03.213Z,7.20
2018-04-19T03:11:30.031Z,7.20
2018-04-19T03:13:56.120Z,7.20
2018-04-19T03:16:22.205Z,7.20
2018-04-19T03:18:48.270Z,7.10
2018-04-19T03:21:14.368Z,7.00
2018-04-19T03:23:40.471Z,7.00
2018-04-19T03:26:06.577Z,7.00
2018-04-19T03:28:32.670Z,6.90
2018-04-19T03:30:58.749Z,6.90
2018-04-19T03:33:24.837Z,6.80
2018-04-19T03:35:50.936Z,6.80
2018-04-19T03:38:17.767Z,6.80
2018-04-19T03:40:43.855Z,6.80
2018-04-19T03:43:09.945Z,6.80
2018-04-19T03:45:36.026Z,6.80
2018-04-19T03:48:02.147Z,6.80
2018-04-19T03:50:28.975Z,6.70
2018-04-19T03:52:55.078Z,6.70
2018-04-19T03:55:21.149Z,6.80
2018-04-19T03:57:47.243Z,6.80
2018-04-19T04:00:14.156Z,6.70
2018-04-19T04:02:40.344Z,6.70
2018-04-19T04:05:06.420Z,6.70
2018-04-19T04:07:32.505Z,6.70
2018-04-19T04:09:58.584Z,6.70
2018-04-19T04:12:24.656Z,6.70
2018-04-19T04:14:50.733Z,6.60
2018-04-19T04:17:29.089Z,6.50
2018-04-19T04:20:07.622Z,6.40
2018-04-19T04:22:45.930Z,6.40
2018-04-19T04:25:12.014Z,6.40
2018-04-19T04:27:38.125Z,6.30
2018-04-19T04:30:04.248Z,6.30
2018-04-19T04:32:30.380Z,6.30
2018-04-19T04:34:57.229Z,6.40
2018-04-19T04:37:23.321Z,6.40
2018-04-19T04:39:49.421Z,6.40
2018-04-19T04:42:15.511Z,6.50
2018-04-19T04:44:42.376Z,6.50
2018-04-19T04:47:08.464Z,6.50
2018-04-19T04:49:34.571Z,6.50
2018-04-19T04:52:00.646Z,6.50
2018-04-19T04:54:26.748Z,6.50
2018-04-19T04:56:52.856Z,6.50
2018-04-19T04:59:18.973Z,6.50
2018-04-19T05:01:45.071Z,6.60
2018-04-19T05:04:11.197Z,6.70
2018-04-19T05:06:37.331Z,6.70
2018-04-19T05:09:03.559Z,6.80
2018-04-19T05:11:29.685Z,6.90
2018-04-19T05:13:56.519Z,7.10
2018-04-19T05:16:22.623Z,7.10
2018-04-19T05:18:48.718Z,7.20
2018-04-19T05:21:15.563Z,7.40
2018-04-19T05:23:42.401Z,7.40
2018-04-19T05:26:08.502Z,7.40
2018-04-19T05:28:34.585Z,7.50
2018-04-19T05:31:00.670Z,7.60
2018-04-19T05:33:26.757Z,7.70
2018-04-19T05:35:52.867Z,7.80
2018-04-19T05:38:18.967Z,7.90
2018-04-19T05:40:45.080Z,8.10
2018-04-19T05:43:11.920Z,8.30
2018-04-19T05:45:38.071Z,8.30
2018-04-19T05:48:04.167Z,8.40
2018-04-19T05:50:30.264Z,8.50
2018-04-19T05:52:57.125Z,8.90
2018-04-19T05:55:23.219Z,8.90
2018-04-19T05:57:49.345Z,9.00
2018-04-19T06:00:15.433Z,9.10
2018-04-19T06:02:42.281Z,9.50
2018-04-19T06:05:09.115Z,9.60
2018-04-19T06:07:35.200Z,9.60
2018-04-19T06:10:01.301Z,9.60
2018-04-19T06:12:27.563Z,9.70
2018-04-19T06:14:54.372Z,9.90
2018-04-19T06:17:20.515Z,9.90
2018-04-19T06:19:46.613Z,10.00
2018-04-19T06:22:12.722Z,10.10
2018-04-19T06:24:38.807Z,10.10
2018-04-19T06:27:04.882Z,10.30
2018-04-19T06:29:30.965Z,10.50
2018-04-19T06:31:57.059Z,10.60
2018-04-19T06:34:23.138Z,10.90
2018-04-19T06:36:49.269Z,11.10
2018-04-19T06:39:16.102Z,11.50
2018-04-19T06:41:42.173Z,11.40
2018-04-19T06:44:08.273Z,11.60
2018-04-19T06:46:34.372Z,11.70
2018-04-19T06:49:00.456Z,11.80
2018-04-19T06:51:26.531Z,12.00
2018-04-19T06:53:52.597Z,12.20
2018-04-19T06:56:18.673Z,12.30
2018-04-19T06:58:44.753Z,12.40
2018-04-19T07:01:10.836Z,12.50
2018-04-19T07:03:36.894Z,12.70
2018-04-19T07:06:03.727Z,13.00
2018-04-19T07:08:29.801Z,13.00
2018-04-19T07:10:55.874Z,13.10
2018-04-19T07:13:21.947Z,13.20
2018-04-19T07:15:48.775Z,13.50
2018-04-19T07:18:14.854Z,13.40
2018-04-19T07:20:40.930Z,13.60
2018-04-19T07:23:07.002Z,13.80
2018-04-19T07:25:33.078Z,13.90
2018-04-19T07:27:59.167Z,14.00
2018-04-19T07:30:25.228Z,14.10
2018-04-19T07:32:51.293Z,14.20
2018-04-19T07:35:17.422Z,14.40
2018-04-19T07:37:44.235Z,14.60
2018-04-19T07:40:10.305Z,14.60
2018-04-19T07:42:37.139Z,14.90
2018-04-19T07:45:03.215Z,14.90
2018-04-19T07:47:29.292Z,15.10
2018-04-19T07:49:55.350Z,15.10
2018-04-19T07:52:21.435Z,15.30
2018-04-19T07:54:47.502Z,15.30
2018-04-19T07:57:13.595Z,15.50
2018-04-19T07:59:40.402Z,15.70
2018-04-19T08:02:06.498Z,15.70
2018-04-19T08:04:32.573Z,15.80
2018-04-19T08:06:58.634Z,16.10
2018-04-19T08:09:24.707Z,16.20
2018-04-19T08:11:50.782Z,16.30
2018-04-19T08:14:16.866Z,16.40
2018-04-19T08:16:43.683Z,16.60
2018-04-19T08:19:09.814Z,16.60
2018-04-19T08:21:35.889Z,16.70
2018-04-19T08:24:01.977Z,16.80
2018-04-19T08:26:28.051Z,16.80
2018-04-19T08:28:54.164Z,17.00
2018-04-19T08:31:20.234Z,17.10
2018-04-19T08:33:46.291Z,17.10
2018-04-19T08:36:13.105Z,17.40
2018-04-19T08:38:39.173Z,17.30
2018-04-19T08:41:06.069Z,17.70
2018-04-19T08:43:32.128Z,17.70
2018-04-19T08:45:58.404Z,17.80
2018-04-19T08:48:24.622Z,17.90
2018-04-19T08:50:50.853Z,18.10
2018-04-19T08:53:17.016Z,18.20
2018-04-19T08:55:43.349Z,18.40
2018-04-19T08:58:10.161Z,18.40
2018-04-19T09:00:36.887Z,18.50
2018-04-19T09:03:03.221Z,18.60
2018-04-19T09:05:29.579Z,18.70
2018-04-19T09:07:55.720Z,18.90
2018-04-19T09:10:22.541Z,19.00
2018-04-19T09:12:48.986Z,19.00
2018-04-19T09:15:15.047Z,19.00
2018-04-19T09:17:41.861Z,19.30
2018-04-19T09:20:07.929Z,19.30
2018-04-19T09:22:34.006Z,19.40
2018-04-19T09:25:00.062Z,19.50
2018-04-19T09:27:26.140Z,19.70
2018-04-19T09:29:52.974Z,19.80
2018-04-19T09:32:19.058Z,19.80
2018-04-19T09:34:45.126Z,19.80
2018-04-19T09:37:11.215Z,20.00
2018-04-19T09:39:37.291Z,20.10
2018-04-19T09:42:03.386Z,20.10
2018-04-19T09:44:29.438Z,20.20
2018-04-19T09:46:55.501Z,20.20
2018-04-19T09:49:21.578Z,20.30
2018-04-19T09:51:47.647Z,20.40
2018-04-19T09:54:14.596Z,20.60
2018-04-19T09:56:40.569Z,20.60
2018-04-19T09:59:09.713Z,20.70
2018-04-19T10:01:41.802Z,20.80
2018-04-19T10:04:07.900Z,20.70
2018-04-19T10:06:33.986Z,20.90
2018-04-19T10:09:00.083Z,21.00
2018-04-19T10:11:26.126Z,21.00
2018-04-19T10:13:52.206Z,21.20
2018-04-19T10:16:18.262Z,21.30
2018-04-19T10:18:45.078Z,21.30
2018-04-19T10:21:11.230Z,21.30
2018-04-19T10:23:38.038Z,21.50
2018-04-19T10:26:04.113Z,21.50
2018-04-19T10:28:30.198Z,21.60
2018-04-19T10:30:56.270Z,21.70
2018-04-19T10:33:22.341Z,21.80
2018-04-19T10:35:48.404Z,21.90
2018-04-19T10:38:14.499Z,22.00
2018-04-19T10:40:40.607Z,22.20
2018-04-19T10:43:06.790Z,22.40
2018-04-19T10:45:32.877Z,22.30
2018-04-19T10:47:58.942Z,22.30
2018-04-19T10:50:25.026Z,22.40
2018-04-19T10:52:51.109Z,22.60
2018-04-19T10:55:17.195Z,22.60
2018-04-19T10:57:44.041Z,22.90
2018-04-19T11:00:10.872Z,22.90
2018-04-19T11:02:36.950Z,22.90
2018-04-19T11:05:03.068Z,23.00
2018-04-19T11:07:29.254Z,23.20
2018-04-19T11:09:55.325Z,23.30
2018-04-19T11:12:21.411Z,23.40
2018-04-19T11:14:47.491Z,23.40
2018-04-19T11:17:13.617Z,23.50
2018-04-19T11:19:40.714Z,23.50
2018-04-19T11:22:08.800Z,23.40
2018-04-19T11:24:35.694Z,23.60
2018-04-19T11:27:01.791Z,23.80
2018-04-19T11:29:27.871Z,23.90
2018-04-19T11:31:53.965Z,23.90
2018-04-19T11:34:20.153Z,24.00
2018-04-19T11:36:46.246Z,24.10
2018-04-19T11:39:12.365Z,24.20
2018-04-19T11:41:38.461Z,24.30
2018-04-19T11:44:04.535Z,24.40
2018-04-19T11:46:30.642Z,24.50
2018-04-19T11:48:56.737Z,24.60
2018-04-19T11:51:23.580Z,24.60
2018-04-19T11:53:49.789Z,24.60
2018-04-19T11:56:15.867Z,24.70
2018-04-19T11:58:41.953Z,24.80
2018-04-19T12:01:08.125Z,24.90
2018-04-19T12:03:34.209Z,24.90
2018-04-19T12:06:01.065Z,25.20
2018-04-19T12:08:27.906Z,25.30
2018-04-19T12:10:54.734Z,25.40
2018-04-19T12:13:20.822Z,25.40
2018-04-19T12:15:46.909Z,25.40
2018-04-19T12:18:12.990Z,25.50
2018-04-19T12:20:39.823Z,25.70
2018-04-19T12:23:05.935Z,25.70
2018-04-19T12:25:32.005Z,25.70
2018-04-19T12:27:58.090Z,25.70
2018-04-19T12:30:24.165Z,25.70
2018-04-19T12:32:50.257Z,25.90
2018-04-19T12:35:16.356Z,26.00
2018-04-19T12:37:42.500Z,26.10
2018-04-19T12:40:08.541Z,26.10
2018-04-19T12:42:35.373Z,26.30
2018-04-19T12:45:01.489Z,26.30
2018-04-19T12:47:27.563Z,26.50
2018-04-19T12:49:53.649Z,26.50
2018-04-19T12:52:19.718Z,26.50
2018-04-19T12:54:45.812Z,26.70
2018-04-19T12:57:11.885Z,26.80
2018-04-19T12:59:37.999Z,26.90
2018-04-19T13:02:04.074Z,26.90
2018-04-19T13:04:30.151Z,27.00
2018-04-19T13:06:56.305Z,27.10
2018-04-19T13:09:22.393Z,27.20
2018-04-19T13:11:48.487Z,27.30
2018-04-19T13:14:14.576Z,27.20
2018-04-19T13:16:40.670Z,27.50
2018-04-19T13:19:06.762Z,27.70
2018-04-19T13:21:33.574Z,27.90
2018-04-19T13:23:59.687Z,27.90
2018-04-19T13:26:25.761Z,28.00
2018-04-19T13:28:51.833Z,28.10
2018-04-19T13:31:18.662Z,28.10
2018-04-19T13:33:44.737Z,28.10
2018-04-19T13:36:11.570Z,28.50
2018-04-19T13:38:37.651Z,28.50
2018-04-19T13:41:03.756Z,28.40
2018-04-19T13:43:30.598Z,28.50
2018-04-19T13:45:56.730Z,28.40
2018-04-19T13:48:22.817Z,29.40
2018-04-19T13:50:48.897Z,30.60
2018-04-19T13:53:14.991Z,31.80
2018-04-19T13:55:41.090Z,32.80
2018-04-19T13:58:07.161Z,32.90
2018-04-19T14:00:33.234Z,33.50
2018-04-19T14:02:59.313Z,34.20
2018-04-19T14:05:26.141Z,34.70
2018-04-19T14:07:52.242Z,34.70
2018-04-19T14:10:18.329Z,35.00
2018-04-19T14:12:44.438Z,35.10
2018-04-19T14:15:10.534Z,35.30
2018-04-19T14:17:37.357Z,35.70
2018-04-19T14:20:03.468Z,35.60
2018-04-19T14:22:29.567Z,35.50
2018-04-19T14:24:55.645Z,35.80
2018-04-19T14:27:21.729Z,35.70
2018-04-19T14:29:48.537Z,36.00
2018-04-19T14:32:14.635Z,36.00
2018-04-19T14:34:40.703Z,36.60
2018-04-19T14:37:06.787Z,37.00
2018-04-19T14:39:32.871Z,36.60
2018-04-19T14:41:58.987Z,36.70
2018-04-19T14:44:25.107Z,36.60
2018-04-19T14:46:51.918Z,36.80
2018-04-19T14:49:18.055Z,36.80
2018-04-19T14:51:44.123Z,37.00
2018-04-19T14:54:10.177Z,37.20
2018-04-19T14:56:37.023Z,36.90
2018-04-19T14:59:03.112Z,36.90
2018-04-19T15:01:29.181Z,36.90
2018-04-19T15:03:55.265Z,36.80
2018-04-19T15:06:21.337Z,36.80
2018-04-19T15:08:47.455Z,36.60
2018-04-19T15:11:13.558Z,36.50
2018-04-19T15:13:40.377Z,36.20
2018-04-19T15:16:06.450Z,36.10
2018-04-19T15:18:32.542Z,36.00
2018-04-19T15:20:58.605Z,36.50
2018-04-19T15:23:24.709Z,36.90
2018-04-19T15:25:50.824Z,37.20
2018-04-19T15:28:17.660Z,37.20
2018-04-19T15:30:44.547Z,37.30
2018-04-19T15:33:11.411Z,37.60
2018-04-19T15:35:37.553Z,37.60
2018-04-19T15:38:03.630Z,37.70
2018-04-19T15:40:29.705Z,37.10
2018-04-19T15:42:55.787Z,37.30
2018-04-19T15:45:21.881Z,36.90
2018-04-19T15:47:47.974Z,37.00
2018-04-19T15:50:14.054Z,37.00
2018-04-19T15:52:40.134Z,36.80
2018-04-19T15:55:06.283Z,37.10
2018-04-19T15:57:32.348Z,36.20
2018-04-19T15:59:58.436Z,36.10
2018-04-19T16:02:24.521Z,36.10
2018-04-19T16:04:50.610Z,35.90
2018-04-19T16:07:16.682Z,35.90
2018-04-19T16:09:42.769Z,35.40
2018-04-19T16:12:08.849Z,35.80
2018-04-19T16:14:34.917Z,36.00
2018-04-19T16:17:01.831Z,35.40
2018-04-19T16:19:27.905Z,35.40
2018-04-19T16:21:54.007Z,35.80
2018-04-19T16:24:20.113Z,35.70
2018-04-19T16:26:46.211Z,35.80
2018-04-19T16:29:12.287Z,35.40
2018-04-19T16:31:38.374Z,35.30
2018-04-19T16:34:04.460Z,35.10
2018-04-19T16:36:30.541Z,35.20
2018-04-19T16:38:56.613Z,34.30
2018-04-19T16:41:23.450Z,34.60
2018-04-19T16:43:49.544Z,34.60
2018-04-19T16:46:16.387Z,34.40
2018-04-19T16:48:42.487Z,34.40
2018-04-19T16:51:08.559Z,34.00
2018-04-19T16:53:34.713Z,34.10
2018-04-19T16:56:00.805Z,33.40
2018-04-19T16:58:26.927Z,33.40
2018-04-19T17:00:53.031Z,33.10
2018-04-19T17:03:19.117Z,33.40
2018-04-19T17:05:45.199Z,33.40
2018-04-19T17:08:11.334Z,33.50
2018-04-19T17:10:37.418Z,33.70
2018-04-19T17:13:03.513Z,33.50
2018-04-19T17:15:29.577Z,33.30
2018-04-19T17:17:55.648Z,33.00
2018-04-19T17:20:21.750Z,33.00
2018-04-19T17:22:47.857Z,32.90
2018-04-19T17:25:13.954Z,32.40
2018-04-19T17:27:40.043Z,32.10
2018-04-19T17:30:06.126Z,31.90
2018-04-19T17:32:32.209Z,31.60
2018-04-19T17:34:58.289Z,31.10
2018-04-19T17:37:24.361Z,30.80
2018-04-19T17:39:50.442Z,30.40
2018-04-19T17:42:16.511Z,30.10
2018-04-19T17:44:42.597Z,29.90
2018-04-19T17:47:08.669Z,29.50
2018-04-19T17:49:34.768Z,29.10
2018-04-19T17:52:01.671Z,28.20
2018-04-19T17:54:27.787Z,28.20
2018-04-19T17:56:53.885Z,27.60
2018-04-19T17:59:20.725Z,26.60
2018-04-19T18:01:46.823Z,26.50
2018-04-19T18:04:12.918Z,26.20
2018-04-19T18:06:39.748Z,24.70
2018-04-19T18:09:05.833Z,24.70
2018-04-19T18:11:31.926Z,23.70
2018-04-19T18:13:58.006Z,22.90
2018-04-19T18:16:24.101Z,22.30
2018-04-19T18:18:50.215Z,21.50
2018-04-19T18:21:16.329Z,21.00
2018-04-19T18:23:42.415Z,20.60
2018-04-19T18:26:08.490Z,20.30
2018-04-19T18:28:35.311Z,19.80
2018-04-19T18:31:01.386Z,19.80
2018-04-19T18:33:27.529Z,19.50
2018-04-19T18:35:53.626Z,19.30
2018-04-19T18:38:19.707Z,19.00
2018-04-19T18:40:45.787Z,18.80
2018-04-19T18:43:11.857Z,18.60
2018-04-19T18:45:38.682Z,18.00
2018-04-19T18:48:04.763Z,17.90
2018-04-19T18:50:31.583Z,17.60
2018-04-19T18:53:00.710Z,17.60
2018-04-19T18:55:29.192Z,17.30
2018-04-19T18:57:55.688Z,17.30
2018-04-19T19:00:22.916Z,17.20
2018-04-19T19:02:49.089Z,16.90
2018-04-19T19:05:16.020Z,16.80
2018-04-19T19:07:42.978Z,16.50
2018-04-19T19:10:09.842Z,16.40
2018-04-19T19:12:36.729Z,16.30
2018-04-19T19:15:03.691Z,16.30
2018-04-19T19:17:42.194Z,16.20
2018-04-19T19:20:10.241Z,16.00
2018-04-19T19:22:36.375Z,16.00
2018-04-19T19:25:02.770Z,15.90
2018-04-19T19:27:31.418Z,15.70
2018-04-19T19:29:57.510Z,15.60
2018-04-19T19:32:23.748Z,15.60
2018-04-19T19:34:49.853Z,15.50
2018-04-19T19:37:15.964Z,15.30
2018-04-19T19:39:42.068Z,15.30
2018-04-19T19:42:08.213Z,15.20
2018-04-19T19:44:34.313Z,15.10
2018-04-19T19:47:00.397Z,15.00
2018-04-19T19:49:26.496Z,14.90
2018-04-19T19:51:53.331Z,14.80
2018-04-19T19:54:19.530Z,14.80
2018-04-19T19:56:45.631Z,14.80
2018-04-19T19:59:12.458Z,14.60
2018-04-19T20:01:38.550Z,14.60
2018-04-19T20:04:04.641Z,14.60
2018-04-19T20:06:35.264Z,14.50
2018-04-19T20:09:06.132Z,14.40
2018-04-19T20:11:35.152Z,14.30
2018-04-19T20:14:01.330Z,14.10
2018-04-19T20:16:27.417Z,14.10
2018-04-19T20:18:53.511Z,14.10
2018-04-19T20:21:19.618Z,14.00
2018-04-19T20:23:45.770Z,14.00
2018-04-19T20:26:11.920Z,13.70
2018-04-19T20:28:38.005Z,13.60
2018-04-19T20:31:04.114Z,13.50
2018-04-19T20:33:30.226Z,13.40
2018-04-19T20:35:56.325Z,13.50
2018-04-19T20:38:22.400Z,13.50
2018-04-19T20:40:49.585Z,13.50
2018-04-19T20:43:15.711Z,13.40
2018-04-19T20:45:41.863Z,13.40
2018-04-19T20:48:07.930Z,13.30
2018-04-19T20:50:34.016Z,13.20
2018-04-19T20:53:00.087Z,13.20
2018-04-19T20:55:26.209Z,13.20
2018-04-19T20:57:52.265Z,13.20
2018-04-19T21:00:18.403Z,13.10
2018-04-19T21:02:44.498Z,13.10
2018-04-19T21:05:10.566Z,13.00
2018-04-19T21:07:36.648Z,13.00
2018-04-19T21:10:03.513Z,12.90
2018-04-19T21:12:30.357Z,12.80
2018-04-19T21:14:57.222Z,12.80
2018-04-19T21:17:24.037Z,12.80
2018-04-19T21:19:50.126Z,12.80
2018-04-19T21:22:16.205Z,12.80
2018-04-19T21:24:42.298Z,12.80
2018-04-19T21:27:09.153Z,12.60
2018-04-19T21:29:35.961Z,12.60
2018-04-19T21:32:02.083Z,12.50
2018-04-19T21:34:28.149Z,12.60
2018-04-19T21:36:54.230Z,12.50
2018-04-19T21:39:20.404Z,12.40
2018-04-19T21:41:46.512Z,12.40
2018-04-19T21:44:12.655Z,12.40
2018-04-19T21:46:38.754Z,12.30
2018-04-19T21:49:05.594Z,12.20
2018-04-19T21:51:31.654Z,12.20
2018-04-19T21:53:57.847Z,12.10
2018-04-19T21:56:23.946Z,12.10
2018-04-19T21:58:50.765Z,12.00
2018-04-19T22:01:16.849Z,12.00
2018-04-19T22:03:42.993Z,12.00
2018-04-19T22:06:09.064Z,11.90
2018-04-19T22:08:41.289Z,11.90
2018-04-19T22:11:08.111Z,11.90
2018-04-19T22:13:34.197Z,11.80
2018-04-19T22:16:00.271Z,11.80
2018-04-19T22:18:26.359Z,11.80
2018-04-19T22:20:53.225Z,11.60
2018-04-19T22:23:19.401Z,11.60
2018-04-19T22:25:45.519Z,11.60
2018-04-19T22:28:11.665Z,11.60
2018-04-19T22:30:37.775Z,11.50
2018-04-19T22:33:04.597Z,11.40
2018-04-19T22:35:30.686Z,11.40
2018-04-19T22:37:56.779Z,11.30
2018-04-19T22:40:23.001Z,11.30
2018-04-19T22:42:49.086Z,11.10
2018-04-19T22:45:16.039Z,10.90
2018-04-19T22:47:42.117Z,10.70
2018-04-19T22:50:08.216Z,10.80
2018-04-19T22:52:35.093Z,10.60
2018-04-19T22:55:01.206Z,10.50
2018-04-19T22:57:28.028Z,10.50
2018-04-19T22:59:54.121Z,10.40
2018-04-19T23:02:20.270Z,10.50
2018-04-19T23:04:46.341Z,10.40
2018-04-19T23:07:12.435Z,10.40
2018-04-19T23:09:38.510Z,10.40
2018-04-19T23:12:04.627Z,10.40
2018-04-19T23:14:30.716Z,10.60
2018-04-19T23:16:56.861Z,10.40
2018-04-19T23:19:23.699Z,10.20
2018-04-19T23:21:49.897Z,10.30
2018-04-19T23:24:15.999Z,10.20
2018-04-19T23:26:42.842Z,10.20
2018-04-19T23:29:08.921Z,10.10
2018-04-19T23:31:34.998Z,10.20
2018-04-19T23:34:01.091Z,10.10
2018-04-19T23:36:27.168Z,10.10
2018-04-19T23:38:53.260Z,10.10
2018-04-19T23:41:19.350Z,10.10
2018-04-19T23:43:45.456Z,10.10
2018-04-19T23:46:11.556Z,9.90
2018-04-19T23:48:38.392Z,9.90
2018-04-19T23:51:04.486Z,9.90
2018-04-19T23:53:30.577Z,9.80
2018-04-19T23:55:57.435Z,9.50
2018-04-19T23:58:23.522Z,9.60
